createdAt,value
2022-08-17T00:00:03.690Z,73.21
2022-08-17T00:03:15.149Z,74.04
2022-08-17T00:05:55.298Z,74.76
2022-08-17T00:08:26.646Z,75.05
2022-08-17T00:10:55.476Z,75.70
2022-08-17T00:13:31.024Z,76.36
2022-08-17T00:16:02.371Z,76.79
2022-08-17T00:19:01.506Z,77.45
2022-08-17T00:21:23.629Z,77.87
2022-08-17T00:23:52.130Z,77.83
2022-08-17T00:26:43.733Z,78.37
2022-08-17T00:29:09.844Z,79.23
2022-08-17T00:31:47.339Z,79.01
2022-08-17T00:34:14.697Z,79.32
2022-08-17T00:36:42.104Z,79.38
2022-08-17T00:39:10.250Z,80.03
2022-08-17T00:41:42.195Z,79.03
2022-08-17T00:44:12.006Z,80.05
2022-08-17T00:46:43.117Z,81.23
2022-08-17T00:49:12.749Z,80.69
2022-08-17T00:51:46.495Z,81.19
2022-08-17T00:54:24.905Z,82.66
2022-08-17T00:57:05.655Z,81.92
2022-08-17T00:59:39.752Z,82.43
2022-08-17T01:02:09.623Z,82.37
2022-08-17T01:04:37.539Z,83.01
2022-08-17T01:07:06.693Z,83.79
2022-08-17T01:09:34.568Z,84.04
2022-08-17T01:12:02.024Z,84.27
2022-08-17T01:14:29.526Z,84.03
2022-08-17T01:16:57.228Z,84.10
2022-08-17T01:19:28.793Z,84.83
2022-08-17T01:22:06.463Z,85.44
2022-08-17T01:24:35.952Z,85.89
2022-08-17T01:27:04.045Z,86.24
2022-08-17T01:29:40.947Z,86.38
2022-08-17T01:32:09.242Z,86.60
2022-08-17T01:34:42.775Z,86.97
2022-08-17T01:37:14.110Z,87.52
2022-08-17T01:39:57.586Z,87.61
2022-08-17T01:42:40.348Z,88.86
2022-08-17T01:45:16.789Z,89.23
2022-08-17T01:47:44.769Z,90.01
2022-08-17T01:50:23.775Z,90.11
2022-08-17T01:52:55.945Z,90.78
2022-08-17T01:55:33.243Z,91.50
2022-08-17T01:58:01.306Z,92.04
2022-08-17T02:00:47.123Z,92.36
2022-08-17T02:03:21.801Z,92.89
2022-08-17T02:05:50.585Z,92.92
2022-08-17T02:08:20.463Z,93.72
2022-08-17T02:11:11.500Z,94.08
2022-08-17T02:13:39.558Z,94.29
2022-08-17T02:16:06.781Z,94.15
2022-08-17T02:18:33.857Z,94.92
2022-08-17T02:21:01.533Z,94.94
2022-08-17T02:23:33.461Z,94.59
2022-08-17T02:26:01.903Z,94.16
2022-08-17T02:28:29.701Z,94.68
2022-08-17T02:31:03.384Z,95.08
2022-08-17T02:33:41.680Z,96.08
2022-08-17T02:36:12.493Z,96.24
2022-08-17T02:38:41.158Z,96.73
2022-08-17T02:41:09.198Z,97.44
2022-08-17T02:43:36.757Z,97.80
2022-08-17T02:46:03.793Z,98.14
2022-08-17T02:48:32.041Z,98.83
2022-08-17T02:51:00.812Z,99.89
2022-08-17T02:53:35.972Z,100.00
2022-08-17T02:56:04.122Z,100.00
2022-08-17T02:58:34.613Z,100.00
2022-08-17T03:01:07.146Z,100.00
2022-08-17T03:03:35.694Z,100.00
2022-08-17T03:06:03.727Z,100.00
2022-08-17T03:08:31.735Z,100.00
2022-08-17T03:10:58.743Z,100.00
2022-08-17T03:13:27.214Z,100.00
2022-08-17T03:15:54.301Z,100.00
2022-08-17T03:18:25.742Z,100.00
2022-08-17T03:21:00.837Z,100.00
2022-08-17T03:23:30.401Z,100.00
2022-08-17T03:26:00.103Z,100.00
2022-08-17T03:28:28.238Z,100.00
2022-08-17T03:30:55.657Z,100.00
2022-08-17T03:33:23.302Z,100.00
2022-08-17T03:35:50.785Z,100.00
2022-08-17T03:38:20.067Z,100.00
2022-08-17T03:40:56.260Z,100.00
2022-08-17T03:43:32.873Z,100.00
2022-08-17T03:46:34.398Z,100.00
2022-08-17T03:49:27.449Z,100.00
2022-08-17T03:52:15.739Z,100.00
2022-08-17T03:55:03.303Z,100.00
2022-08-17T03:57:31.621Z,100.00
2022-08-17T03:59:59.738Z,100.00
2022-08-17T04:02:33.831Z,100.00
2022-08-17T04:05:01.600Z,100.00
2022-08-17T04:07:31.466Z,100.00
2022-08-17T04:09:59.658Z,100.00
2022-08-17T04:12:31.471Z,100.00
2022-08-17T04:14:59.145Z,100.00
2022-08-17T04:17:29.241Z,100.00
2022-08-17T04:19:56.908Z,100.00
2022-08-17T04:22:33.070Z,100.00
2022-08-17T04:25:17.768Z,100.00
2022-08-17T04:27:44.832Z,100.00
2022-08-17T04:30:12.941Z,100.00
2022-08-17T04:33:04.058Z,100.00
2022-08-17T04:35:41.171Z,100.00
2022-08-17T04:38:14.279Z,100.00
2022-08-17T04:41:00.454Z,100.00
2022-08-17T04:43:30.947Z,100.00
2022-08-17T04:46:05.964Z,100.00
2022-08-17T04:48:38.592Z,100.00
2022-08-17T04:51:15.301Z,100.00
2022-08-17T04:53:53.988Z,100.00
2022-08-17T04:56:23.398Z,100.00
2022-08-17T04:58:54.020Z,100.00
2022-08-17T05:01:24.712Z,100.00
2022-08-17T05:03:54.684Z,100.00
2022-08-17T05:06:22.615Z,100.00
2022-08-17T05:08:49.857Z,100.00
2022-08-17T05:11:17.307Z,100.00
2022-08-17T05:13:44.926Z,100.00
2022-08-17T05:16:12.273Z,100.00
2022-08-17T05:18:39.528Z,100.00
2022-08-17T05:21:07.264Z,100.00
2022-08-17T05:23:41.930Z,100.00
2022-08-17T05:26:26.495Z,99.46
2022-08-17T05:29:00.545Z,99.46
2022-08-17T05:31:30.775Z,99.80
2022-08-17T05:33:58.829Z,98.56
2022-08-17T05:36:42.154Z,97.41
2022-08-17T05:39:16.507Z,95.83
2022-08-17T05:41:47.646Z,96.38
2022-08-17T05:44:16.358Z,95.34
2022-08-17T05:46:50.178Z,95.27
2022-08-17T05:49:27.185Z,95.11
2022-08-17T05:52:12.792Z,94.06
2022-08-17T05:55:13.901Z,93.67
2022-08-17T05:57:52.928Z,92.00
2022-08-17T06:00:43.247Z,88.75
2022-08-17T06:03:29.027Z,86.13
2022-08-17T06:06:34.711Z,84.61
2022-08-17T06:09:39.622Z,84.35
2022-08-17T06:12:45.783Z,85.18
2022-08-17T06:15:32.617Z,83.61
2022-08-17T06:18:06.324Z,83.16
2022-08-17T06:20:47.372Z,82.56
2022-08-17T06:23:30.492Z,82.04
2022-08-17T06:26:08.628Z,81.05
2022-08-17T06:28:58.631Z,80.49
2022-08-17T06:31:40.824Z,78.84
2022-08-17T06:34:12.590Z,78.38
2022-08-17T06:37:03.614Z,75.81
2022-08-17T06:39:49.871Z,74.47
2022-08-17T06:43:06.535Z,72.98
2022-08-17T06:45:50.257Z,72.90
2022-08-17T06:48:33.174Z,72.32
2022-08-17T06:51:52.468Z,72.49
2022-08-17T06:54:59.840Z,70.83
2022-08-17T06:57:33.496Z,71.17
2022-08-17T07:00:26.679Z,70.41
2022-08-17T07:02:59.613Z,70.63
2022-08-17T07:05:42.942Z,69.73
2022-08-17T07:08:45.366Z,69.69
2022-08-17T07:11:19.260Z,68.67
2022-08-17T07:14:20.015Z,70.07
2022-08-17T07:16:53.757Z,68.41
2022-08-17T07:19:31.730Z,68.40
2022-08-17T07:22:20.563Z,67.37
2022-08-17T07:25:02.415Z,65.76
2022-08-17T07:27:45.770Z,64.63
2022-08-17T07:30:25.181Z,64.93
2022-08-17T07:32:59.474Z,65.02
2022-08-17T07:35:37.534Z,63.48
2022-08-17T07:38:25.891Z,61.55
2022-08-17T07:41:03.369Z,62.12
2022-08-17T07:43:39.910Z,61.58
2022-08-17T07:46:42.146Z,61.87
2022-08-17T07:49:09.175Z,60.74
2022-08-17T07:51:46.657Z,59.78
2022-08-17T07:54:22.392Z,59.02
2022-08-17T07:56:56.467Z,58.41
2022-08-17T07:59:33.369Z,57.65
2022-08-17T08:02:06.215Z,57.34
2022-08-17T08:04:59.735Z,55.04
2022-08-17T08:07:37.388Z,53.69
2022-08-17T08:10:13.824Z,52.45
2022-08-17T08:12:45.323Z,52.32
2022-08-17T08:15:23.613Z,52.00
2022-08-17T08:18:18.670Z,50.98
2022-08-17T08:21:10.431Z,51.30
2022-08-17T08:24:00.060Z,49.85
2022-08-17T08:27:00.356Z,49.82
2022-08-17T08:29:44.838Z,47.14
2022-08-17T08:32:50.410Z,45.15
2022-08-17T08:35:37.876Z,44.97
2022-08-17T08:38:22.326Z,44.00
2022-08-17T08:41:31.901Z,43.96
2022-08-17T08:44:19.001Z,41.50
2022-08-17T08:46:49.158Z,40.19
2022-08-17T08:50:02.161Z,39.41
2022-08-17T08:52:35.495Z,38.02
2022-08-17T08:55:15.460Z,36.58
2022-08-17T08:58:08.307Z,35.66
2022-08-17T09:00:58.538Z,34.29
2022-08-17T09:04:24.601Z,33.55
2022-08-17T09:07:17.466Z,33.05
2022-08-17T09:09:59.680Z,31.08
2022-08-17T09:12:41.659Z,30.84
2022-08-17T09:15:33.468Z,30.09
2022-08-17T09:19:00.285Z,29.42
2022-08-17T09:21:18.838Z,29.64
2022-08-17T09:24:04.885Z,29.40
2022-08-17T09:26:43.067Z,30.61
2022-08-17T09:29:16.311Z,30.90
2022-08-17T09:31:55.228Z,31.42
2022-08-17T09:34:43.520Z,31.86
2022-08-17T09:37:53.118Z,31.41
2022-08-17T09:40:46.540Z,29.83
2022-08-17T09:43:30.631Z,29.69
2022-08-17T09:46:03.881Z,28.79
2022-08-17T09:48:31.712Z,30.22
2022-08-17T09:51:17.763Z,29.27
2022-08-17T09:53:45.454Z,27.53
2022-08-17T09:56:20.642Z,27.37
2022-08-17T09:58:48.021Z,26.73
2022-08-17T10:01:53.663Z,27.17
2022-08-17T10:04:32.175Z,26.96
2022-08-17T10:07:24.714Z,25.70
2022-08-17T10:10:19.588Z,24.90
2022-08-17T10:13:09.580Z,24.94
2022-08-17T10:15:54.717Z,24.35
2022-08-17T10:18:22.116Z,24.35
2022-08-17T10:21:15.360Z,26.14
2022-08-17T10:24:03.962Z,26.16
2022-08-17T10:26:40.354Z,26.35
2022-08-17T10:29:53.810Z,25.05
2022-08-17T10:32:32.824Z,22.88
2022-08-17T10:35:00.222Z,22.42
2022-08-17T10:37:35.833Z,22.87
2022-08-17T10:40:32.538Z,22.92
2022-08-17T10:43:27.042Z,21.78
2022-08-17T10:46:29.927Z,23.06
2022-08-17T10:49:17.065Z,22.96
2022-08-17T10:51:59.969Z,22.89
2022-08-17T10:54:48.130Z,22.96
2022-08-17T10:57:34.082Z,22.99
2022-08-17T11:00:27.822Z,22.69
2022-08-17T11:02:57.501Z,21.42
2022-08-17T11:05:44.056Z,21.60
2022-08-17T11:08:57.489Z,21.56
2022-08-17T11:11:53.046Z,23.13
2022-08-17T11:14:41.265Z,23.75
2022-08-17T11:17:14.692Z,24.46
2022-08-17T11:19:57.226Z,24.35
2022-08-17T11:22:57.988Z,24.14
2022-08-17T11:25:47.245Z,22.89
2022-08-17T11:28:19.323Z,21.58
2022-08-17T11:30:51.870Z,21.25
2022-08-17T11:33:34.111Z,20.83
2022-08-17T11:36:32.113Z,21.62
2022-08-17T11:39:19.487Z,21.57
2022-08-17T11:41:58.715Z,22.96
2022-08-17T11:45:03.621Z,23.68
2022-08-17T11:48:27.197Z,23.12
2022-08-17T11:51:19.058Z,21.69
2022-08-17T11:53:46.495Z,21.31
2022-08-17T11:56:35.776Z,21.71
2022-08-17T11:59:23.301Z,21.39
2022-08-17T12:01:51.931Z,21.49
2022-08-17T12:04:22.719Z,21.70
2022-08-17T12:06:56.874Z,21.39
2022-08-17T12:09:32.090Z,21.16
2022-08-17T12:12:16.911Z,22.74
2022-08-17T12:15:10.565Z,22.87
2022-08-17T12:17:42.020Z,24.11
2022-08-17T12:20:37.201Z,24.65
2022-08-17T12:23:09.010Z,25.76
2022-08-17T12:25:56.248Z,25.89
2022-08-17T12:28:34.977Z,26.47
2022-08-17T12:31:08.479Z,26.20
2022-08-17T12:33:42.413Z,26.66
2022-08-17T12:36:15.365Z,27.18
2022-08-17T12:38:52.157Z,26.55
2022-08-17T12:41:41.740Z,27.74
2022-08-17T12:44:15.081Z,26.87
2022-08-17T12:47:23.328Z,26.65
2022-08-17T12:49:53.691Z,26.53
2022-08-17T12:52:28.105Z,26.74
2022-08-17T12:55:00.218Z,26.81
2022-08-17T12:57:33.644Z,27.19
2022-08-17T13:00:12.116Z,26.95
2022-08-17T13:02:57.998Z,27.14
2022-08-17T13:05:37.200Z,27.17
2022-08-17T13:08:15.163Z,26.12
2022-08-17T13:10:53.463Z,26.48
2022-08-17T13:13:26.733Z,26.66
2022-08-17T13:15:54.260Z,26.36
2022-08-17T13:18:44.390Z,26.53
2022-08-17T13:21:27.022Z,26.50
2022-08-17T13:24:03.834Z,27.36
2022-08-17T13:26:44.294Z,26.92
2022-08-17T13:29:23.756Z,26.65
2022-08-17T13:32:13.547Z,26.71
2022-08-17T13:35:14.198Z,26.34
2022-08-17T13:37:40.728Z,26.97
2022-08-17T13:40:10.356Z,27.73
2022-08-17T13:42:52.967Z,27.40
2022-08-17T13:45:34.997Z,26.97
2022-08-17T13:48:16.777Z,27.18
2022-08-17T13:50:56.370Z,27.92
2022-08-17T13:53:34.135Z,28.25
2022-08-17T13:56:37.104Z,28.12
2022-08-17T13:59:06.626Z,27.01
2022-08-17T14:01:40.017Z,26.67
2022-08-17T14:04:14.083Z,26.87
2022-08-17T14:06:54.463Z,27.18
2022-08-17T14:09:37.195Z,27.07
2022-08-17T14:12:11.865Z,27.28
2022-08-17T14:14:40.758Z,27.84
2022-08-17T14:17:08.377Z,27.35
2022-08-17T14:19:36.240Z,28.28
2022-08-17T14:22:06.487Z,27.73
2022-08-17T14:24:41.281Z,28.03
2022-08-17T14:27:12.312Z,27.39
2022-08-17T14:29:41.195Z,27.62
2022-08-17T14:32:19.056Z,28.19
2022-08-17T14:34:47.388Z,27.32
2022-08-17T14:37:15.825Z,26.58
2022-08-17T14:39:43.314Z,26.99
2022-08-17T14:42:11.461Z,27.96
2022-08-17T14:44:41.957Z,28.36
2022-08-17T14:47:15.728Z,28.55
2022-08-17T14:49:43.698Z,28.47
2022-08-17T14:52:21.726Z,28.17
2022-08-17T14:54:53.302Z,28.06
2022-08-17T14:57:33.673Z,27.83
2022-08-17T15:00:02.930Z,27.72
2022-08-17T15:02:31.212Z,27.29
2022-08-17T15:05:00.649Z,27.33
2022-08-17T15:07:30.929Z,27.86
2022-08-17T15:10:01.346Z,28.98
2022-08-17T15:12:34.582Z,28.08
2022-08-17T15:15:06.216Z,27.65
2022-08-17T15:17:43.908Z,28.33
2022-08-17T15:20:15.656Z,27.07
2022-08-17T15:22:45.018Z,27.41
2022-08-17T15:25:13.754Z,28.72
2022-08-17T15:27:41.547Z,28.08
2022-08-17T15:30:10.148Z,27.48
2022-08-17T15:32:40.877Z,27.27
2022-08-17T15:35:18.748Z,27.99
2022-08-17T15:38:04.519Z,27.43
2022-08-17T15:40:37.956Z,27.25
2022-08-17T15:43:07.985Z,29.65
2022-08-17T15:45:35.551Z,29.20
2022-08-17T15:48:03.501Z,27.53
2022-08-17T15:50:30.901Z,27.56
2022-08-17T15:53:00.577Z,28.50
2022-08-17T15:55:30.728Z,29.22
2022-08-17T15:57:58.309Z,29.45
2022-08-17T16:00:28.297Z,28.40
2022-08-17T16:03:46.394Z,28.48
2022-08-17T16:05:44.845Z,28.66
2022-08-17T16:08:18.466Z,28.92
2022-08-17T16:10:49.090Z,28.82
2022-08-17T16:13:18.214Z,29.43
2022-08-17T16:15:56.852Z,28.76
2022-08-17T16:18:31.407Z,28.57
2022-08-17T16:21:24.094Z,29.28
2022-08-17T16:23:57.804Z,28.37
2022-08-17T16:26:26.483Z,28.89
2022-08-17T16:28:54.899Z,28.76
2022-08-17T16:31:22.922Z,29.28
2022-08-17T16:34:15.563Z,30.04
2022-08-17T16:36:39.130Z,30.06
2022-08-17T16:39:06.584Z,28.70
2022-08-17T16:41:39.997Z,29.16
2022-08-17T16:44:08.748Z,30.57
2022-08-17T16:46:45.853Z,30.45
2022-08-17T16:49:24.417Z,30.20
2022-08-17T16:52:03.452Z,29.93
2022-08-17T16:54:34.302Z,30.40
2022-08-17T16:57:05.458Z,29.79
2022-08-17T16:59:42.220Z,30.71
2022-08-17T17:02:15.490Z,30.77
2022-08-17T17:05:27.526Z,31.44
2022-08-17T17:07:58.821Z,31.66
2022-08-17T17:10:38.675Z,32.49
2022-08-17T17:13:32.595Z,36.80
2022-08-17T17:16:12.373Z,36.27
2022-08-17T17:18:42.685Z,36.98
2022-08-17T17:21:19.694Z,36.73
2022-08-17T17:23:55.135Z,37.71
2022-08-17T17:26:52.959Z,37.63
2022-08-17T17:29:50.026Z,38.50
2022-08-17T17:32:26.763Z,37.53
2022-08-17T17:35:04.659Z,36.58
2022-08-17T17:37:34.812Z,37.53
2022-08-17T17:40:13.713Z,37.79
2022-08-17T17:42:43.706Z,38.73
2022-08-17T17:45:20.751Z,39.91
2022-08-17T17:47:48.437Z,39.39
2022-08-17T17:50:18.799Z,39.46
2022-08-17T17:53:08.839Z,39.65
2022-08-17T17:55:59.907Z,40.56
2022-08-17T17:58:39.705Z,40.41
2022-08-17T18:01:59.456Z,40.71
2022-08-17T18:04:52.507Z,41.50
2022-08-17T18:07:42.443Z,42.28
2022-08-17T18:10:42.412Z,42.69
2022-08-17T18:13:21.395Z,43.36
2022-08-17T18:15:54.440Z,43.75
2022-08-17T18:18:39.217Z,44.09
2022-08-17T18:21:18.738Z,43.49
2022-08-17T18:23:52.772Z,43.91
2022-08-17T18:26:53.570Z,45.08
2022-08-17T18:29:31.729Z,45.48
2022-08-17T18:32:17.575Z,45.34
2022-08-17T18:34:48.742Z,45.30
2022-08-17T18:37:32.118Z,45.42
2022-08-17T18:40:08.231Z,46.56
2022-08-17T18:42:38.332Z,47.22
2022-08-17T18:45:06.352Z,47.88
2022-08-17T18:47:33.964Z,48.05
2022-08-17T18:50:24.577Z,48.43
2022-08-17T18:52:52.020Z,47.83
2022-08-17T18:55:28.327Z,48.32
2022-08-17T18:58:16.072Z,49.49
2022-08-17T19:00:46.058Z,49.80
2022-08-17T19:03:22.158Z,50.15
2022-08-17T19:05:57.517Z,50.51
2022-08-17T19:08:31.057Z,51.09
2022-08-17T19:11:18.979Z,52.29
2022-08-17T19:13:52.214Z,52.83
2022-08-17T19:16:22.793Z,52.51
2022-08-17T19:18:58.587Z,52.27
2022-08-17T19:21:55.699Z,51.75
2022-08-17T19:24:30.658Z,52.37
2022-08-17T19:27:23.327Z,52.58
2022-08-17T19:30:02.677Z,52.31
2022-08-17T19:32:35.128Z,53.93
2022-08-17T19:35:05.858Z,52.19
2022-08-17T19:37:36.294Z,52.03
2022-08-17T19:40:24.482Z,54.14
2022-08-17T19:43:13.290Z,53.03
2022-08-17T19:46:15.706Z,52.61
2022-08-17T19:49:04.211Z,53.07
2022-08-17T19:52:05.086Z,52.69
2022-08-17T19:54:58.910Z,52.72
2022-08-17T19:58:01.810Z,52.83
2022-08-17T20:00:31.299Z,52.55
2022-08-17T20:02:58.913Z,53.13
2022-08-17T20:06:08.597Z,53.69
2022-08-17T20:08:33.901Z,54.18
2022-08-17T20:11:15.108Z,54.75
2022-08-17T20:13:49.018Z,54.68
2022-08-17T20:16:17.470Z,55.02
2022-08-17T20:18:53.807Z,54.74
2022-08-17T20:21:40.085Z,54.85
2022-08-17T20:24:39.145Z,54.32
2022-08-17T20:27:21.951Z,53.81
2022-08-17T20:30:03.381Z,54.19
2022-08-17T20:32:48.432Z,54.07
2022-08-17T20:35:27.056Z,54.25
2022-08-17T20:38:07.405Z,53.90
2022-08-17T20:40:59.746Z,54.27
2022-08-17T20:43:38.882Z,54.09
2022-08-17T20:46:11.884Z,54.41
2022-08-17T20:48:48.263Z,54.52
2022-08-17T20:51:31.453Z,54.53
2022-08-17T20:54:06.571Z,54.71
2022-08-17T20:57:01.012Z,55.11
2022-08-17T20:59:30.711Z,54.92
2022-08-17T21:02:17.630Z,55.35
2022-08-17T21:04:47.411Z,55.39
2022-08-17T21:07:32.974Z,55.63
2022-08-17T21:10:25.896Z,55.84
2022-08-17T21:13:08.396Z,56.27
2022-08-17T21:15:57.194Z,56.23
2022-08-17T21:18:38.845Z,56.42
2022-08-17T21:21:25.139Z,55.93
2022-08-17T21:24:11.763Z,55.85
2022-08-17T21:26:50.830Z,56.28
2022-08-17T21:29:31.046Z,55.69
2022-08-17T21:32:02.928Z,56.59
2022-08-17T21:35:06.593Z,56.73
2022-08-17T21:37:44.307Z,56.81
2022-08-17T21:40:18.106Z,56.60
2022-08-17T21:42:53.745Z,56.22
2022-08-17T21:45:37.575Z,56.19
2022-08-17T21:48:16.383Z,56.38
2022-08-17T21:50:56.663Z,56.34
2022-08-17T21:53:33.751Z,56.59
2022-08-17T21:56:01.621Z,56.89
2022-08-17T21:58:35.864Z,58.04
2022-08-17T22:01:34.366Z,58.70
2022-08-17T22:04:11.222Z,58.91
2022-08-17T22:06:43.255Z,59.95
2022-08-17T22:09:32.069Z,60.53
2022-08-17T22:12:01.972Z,60.62
2022-08-17T22:14:52.155Z,61.23
2022-08-17T22:17:36.483Z,61.55
2022-08-17T22:20:14.690Z,61.41
2022-08-17T22:23:06.400Z,61.68
2022-08-17T22:25:56.351Z,61.46
2022-08-17T22:28:42.859Z,62.07
2022-08-17T22:31:14.498Z,62.05
2022-08-17T22:33:46.969Z,62.10
2022-08-17T22:36:25.189Z,62.45
2022-08-17T22:38:53.960Z,63.03
2022-08-17T22:41:24.089Z,62.88
2022-08-17T22:43:53.293Z,63.63
2022-08-17T22:46:23.800Z,63.59
2022-08-17T22:48:57.905Z,63.32
2022-08-17T22:51:30.871Z,63.47
2022-08-17T22:54:20.480Z,64.43
2022-08-17T22:57:14.827Z,64.57
2022-08-17T22:59:50.661Z,64.65
2022-08-17T23:02:22.983Z,64.35
2022-08-17T23:05:16.702Z,64.31
2022-08-17T23:07:46.598Z,64.40
2022-08-17T23:10:15.286Z,64.82
2022-08-17T23:12:42.983Z,64.96
2022-08-17T23:15:17.762Z,65.49
2022-08-17T23:17:45.692Z,65.57
2022-08-17T23:20:15.599Z,65.97
2022-08-17T23:22:52.527Z,65.92
2022-08-17T23:25:28.136Z,66.17
2022-08-17T23:27:57.592Z,66.64
2022-08-17T23:30:25.654Z,67.05
2022-08-17T23:32:59.331Z,67.63
2022-08-17T23:35:39.309Z,68.34
2022-08-17T23:38:09.761Z,68.22
2022-08-17T23:40:39.497Z,68.14
2022-08-17T23:43:24.353Z,68.47
2022-08-17T23:45:55.100Z,68.79
2022-08-17T23:48:32.542Z,69.27
2022-08-17T23:51:24.776Z,69.22
2022-08-17T23:54:07.739Z,69.72
2022-08-17T23:56:44.283Z,70.45
2022-08-17T23:59:13.329Z,70.79
